Terminal Aerodrome Forecast
Issued by NWS Northern Indiana

Home | Current Version | Previous Version | Text Only | Print | Product List | Glossary On
Versions: 1 2 3 4 5 6 7 8 9 10 11 12 13
000
FTUS43 KIWX 271700 RRA
TAFFWA
TAF
KFWA 271741Z 2718/2818 27012KT 5SM -SN OVC015
     FM272000 28010KT P6SM SCT015 BKN040
     FM280300 25005KT P6SM SCT040=

USA.gov is the U.S. government's official web portal to all federal, state and local government web resources and services.